Time;durP1;ratioP1;P1;durP2;ratioP2;P2;SDS_P1;SDS_P2;PMS_P1;PMS_P2;Temp;Humidity;BMP_temperature;BMP_pressure;BME280_temperature;BME280_humidity;BME280_pressure;Samples;Min_cycle;Max_cycle;Signal;HPM_P1;HPM_P2
2023/01/23 00:02:05;;;;;;;10.03;4.83;;;;;;;;;;5071704;28;20489;-82
2023/01/23 00:04:31;;;;;;;9.43;5.73;;;;;;;;;;5072842;28;20467;-82
2023/01/23 00:06:58;;;;;;;6.87;4.13;;;;;;;;;;5071142;28;20435;-82
2023/01/23 00:09:24;;;;;;;7.10;4.27;;;;;;;;;;5069410;28;20467;-82
2023/01/23 00:11:50;;;;;;;6.57;4.53;;;;;;;;;;5072312;28;20480;-82
2023/01/23 00:14:17;;;;;;;14.00;4.47;;;;;;;;;;5068728;28;20482;-82
2023/01/23 00:16:43;;;;;;;9.23;5.17;;;;;;;;;;5072861;28;20465;-82
2023/01/23 00:19:11;;;;;;;5.63;4.17;;;;;;;;;;5071753;28;21015;-82
2023/01/23 00:21:38;;;;;;;10.00;4.87;;;;;;;;;;5071364;28;20479;-82
2023/01/23 00:24:04;;;;;;;10.47;4.97;;;;;;;;;;5070790;28;20574;-82
2023/01/23 00:26:32;;;;;;;6.27;4.23;;;;;;;;;;5071035;28;20455;-83
2023/01/23 00:28:58;;;;;;;6.30;4.37;;;;;;;;;;5071103;28;20479;-82
2023/01/23 00:31:26;;;;;;;7.57;4.30;;;;;;;;;;5071839;28;20475;-82
2023/01/23 00:33:53;;;;;;;8.10;4.67;;;;;;;;;;5070352;28;20475;-83
2023/01/23 00:36:21;;;;;;;8.40;4.13;;;;;;;;;;5069820;28;20463;-82
2023/01/23 00:38:47;;;;;;;6.97;5.00;;;;;;;;;;5071347;28;20492;-83
2023/01/23 00:41:13;;;;;;;5.80;4.50;;;;;;;;;;5073101;28;20479;-82
2023/01/23 00:43:40;;;;;;;7.53;5.10;;;;;;;;;;5071659;28;20486;-82
2023/01/23 00:46:06;;;;;;;10.10;4.80;;;;;;;;;;5070344;28;20459;-82
2023/01/23 00:48:33;;;;;;;9.03;5.50;;;;;;;;;;5070539;28;20463;-82
2023/01/23 00:50:59;;;;;;;10.63;6.60;;;;;;;;;;5071840;28;20471;-83
2023/01/23 00:53:27;;;;;;;13.40;5.67;;;;;;;;;;5071198;28;20443;-82
2023/01/23 00:55:54;;;;;;;8.53;5.23;;;;;;;;;;5071969;28;20454;-82
2023/01/23 00:58:22;;;;;;;9.20;5.20;;;;;;;;;;5071234;28;20821;-82
2023/01/23 01:00:48;;;;;;;5.90;4.80;;;;;;;;;;5072888;28;20588;-82
2023/01/23 01:03:14;;;;;;;7.07;5.97;;;;;;;;;;5070087;28;20467;-82
2023/01/23 01:05:41;;;;;;;10.47;4.70;;;;;;;;;;5069231;28;20462;-82
2023/01/23 01:08:07;;;;;;;8.50;5.17;;;;;;;;;;5070609;28;20529;-82
2023/01/23 01:10:35;;;;;;;7.57;5.33;;;;;;;;;;5070244;28;20460;-82
2023/01/23 01:13:02;;;;;;;8.00;4.83;;;;;;;;;;5070999;28;20470;-82
2023/01/23 01:15:29;;;;;;;10.40;6.20;;;;;;;;;;5070844;28;21048;-82
2023/01/23 01:17:56;;;;;;;8.47;5.97;;;;;;;;;;5071255;28;20469;-82
2023/01/23 01:20:24;;;;;;;11.50;5.47;;;;;;;;;;5069746;28;20550;-82
2023/01/23 01:22:51;;;;;;;6.90;5.10;;;;;;;;;;5068936;28;20486;-83
2023/01/23 01:25:17;;;;;;;5.40;4.80;;;;;;;;;;5069713;28;20482;-82
2023/01/23 01:27:45;;;;;;;6.53;5.43;;;;;;;;;;5069846;28;20455;-83
2023/01/23 01:30:12;;;;;;;8.57;4.57;;;;;;;;;;5069271;28;21029;-82
2023/01/23 01:32:39;;;;;;;6.70;4.47;;;;;;;;;;5069212;28;20755;-82
2023/01/23 01:35:06;;;;;;;9.77;4.70;;;;;;;;;;5068292;28;20487;-82
2023/01/23 01:37:34;;;;;;;8.60;4.63;;;;;;;;;;5070773;28;21005;-82
2023/01/23 01:40:00;;;;;;;8.10;5.33;;;;;;;;;;5070247;28;20484;-82
2023/01/23 01:42:27;;;;;;;7.93;5.03;;;;;;;;;;5069089;28;20474;-82
2023/01/23 01:44:55;;;;;;;8.27;5.20;;;;;;;;;;5068252;28;20478;-82
2023/01/23 01:47:22;;;;;;;6.97;4.97;;;;;;;;;;5069201;28;20863;-82
2023/01/23 01:49:49;;;;;;;10.20;5.10;;;;;;;;;;5071181;28;20983;-82
2023/01/23 01:52:16;;;;;;;7.30;5.33;;;;;;;;;;5070001;28;20476;-82
2023/01/23 01:54:43;;;;;;;7.37;4.83;;;;;;;;;;5069487;28;20466;-82
2023/01/23 01:57:11;;;;;;;5.27;4.57;;;;;;;;;;5070750;28;20829;-82
2023/01/23 01:59:39;;;;;;;8.47;4.90;;;;;;;;;;5069762;28;20847;-82
2023/01/23 02:02:10;;;;;;;6.40;4.70;;;;;;;;;;5071244;28;20482;-82
2023/01/23 02:04:39;;;;;;;10.10;5.53;;;;;;;;;;5071884;28;20468;-82
2023/01/23 02:07:07;;;;;;;8.80;5.37;;;;;;;;;;5069591;28;20966;-82
2023/01/23 02:09:34;;;;;;;6.73;4.53;;;;;;;;;;5070622;28;20509;-82
2023/01/23 02:12:01;;;;;;;8.20;4.30;;;;;;;;;;5069624;28;21044;-82
2023/01/23 02:14:27;;;;;;;7.00;4.97;;;;;;;;;;5069145;28;21314;-83
2023/01/23 02:16:58;;;;;;;9.87;5.77;;;;;;;;;;5070030;28;20473;-82
2023/01/23 02:19:34;;;;;;;9.27;4.90;;;;;;;;;;5067990;28;20558;-82
2023/01/23 02:22:04;;;;;;;8.17;4.77;;;;;;;;;;5070028;28;20490;-82
2023/01/23 02:24:33;;;;;;;6.97;5.00;;;;;;;;;;5068101;28;20470;-82
2023/01/23 02:27:02;;;;;;;9.83;4.77;;;;;;;;;;5068268;28;20494;-83
2023/01/23 02:29:39;;;;;;;7.13;4.77;;;;;;;;;;5070206;28;20475;-83
2023/01/23 02:32:05;;;;;;;9.10;5.83;;;;;;;;;;5071725;28;20500;-82
2023/01/23 02:34:32;;;;;;;8.40;4.60;;;;;;;;;;5072453;28;20476;-82
2023/01/23 02:36:59;;;;;;;8.10;4.87;;;;;;;;;;5072818;28;20455;-82
2023/01/23 02:39:27;;;;;;;4.60;4.20;;;;;;;;;;5072830;28;20851;-82
2023/01/23 02:41:56;;;;;;;7.60;4.23;;;;;;;;;;5073112;28;20514;-82
2023/01/23 02:44:26;;;;;;;6.10;4.30;;;;;;;;;;5072800;28;20485;-82
2023/01/23 02:46:52;;;;;;;8.87;5.07;;;;;;;;;;5073770;28;20481;-83
2023/01/23 02:49:19;;;;;;;6.17;4.40;;;;;;;;;;5072919;28;20701;-83
2023/01/23 02:51:45;;;;;;;9.97;4.73;;;;;;;;;;5073415;28;20483;-83
2023/01/23 02:54:11;;;;;;;5.17;4.60;;;;;;;;;;5071222;28;20517;-82
2023/01/23 02:56:38;;;;;;;6.40;4.83;;;;;;;;;;5070609;28;20458;-82
2023/01/23 03:01:50;;;;;;;7.27;4.27;;;;;;;;;;5069568;28;20549;-82
2023/01/23 03:04:16;;;;;;;8.20;5.27;;;;;;;;;;5073110;28;20483;-82
2023/01/23 03:06:43;;;;;;;7.40;4.30;;;;;;;;;;5073762;28;20463;-84
2023/01/23 03:09:10;;;;;;;6.67;4.60;;;;;;;;;;5073117;28;20483;-82
2023/01/23 03:11:38;;;;;;;6.37;4.50;;;;;;;;;;5073014;28;20467;-82
2023/01/23 03:14:05;;;;;;;7.67;4.47;;;;;;;;;;5071566;28;20867;-82
2023/01/23 03:16:31;;;;;;;7.50;4.87;;;;;;;;;;5072536;28;20554;-82
2023/01/23 03:19:03;;;;;;;7.27;4.97;;;;;;;;;;5069442;28;20502;-82
2023/01/23 03:21:30;;;;;;;8.30;4.10;;;;;;;;;;5073161;28;20518;-82
2023/01/23 03:23:56;;;;;;;5.93;5.23;;;;;;;;;;5072276;28;20469;-82
2023/01/23 03:26:23;;;;;;;5.53;4.30;;;;;;;;;;5071547;28;20465;-82
2023/01/23 03:31:33;;;;;;;11.43;3.93;;;;;;;;;;5073267;28;20528;-82
2023/01/23 03:34:01;;;;;;;5.53;4.13;;;;;;;;;;5070504;28;20482;-83
2023/01/23 03:36:27;;;;;;;7.13;4.20;;;;;;;;;;5071303;28;20456;-83
2023/01/23 03:41:40;;;;;;;6.33;4.10;;;;;;;;;;5071941;28;20498;-82
2023/01/23 03:44:07;;;;;;;8.90;4.53;;;;;;;;;;5070631;28;20495;-83
2023/01/23 03:46:33;;;;;;;7.80;5.10;;;;;;;;;;5072511;28;20838;-82
2023/01/23 03:49:01;;;;;;;6.40;4.37;;;;;;;;;;5072600;28;20474;-82
2023/01/23 03:51:27;;;;;;;9.33;4.80;;;;;;;;;;5070792;28;20463;-82
2023/01/23 03:53:53;;;;;;;6.23;5.23;;;;;;;;;;5072899;28;20472;-82
2023/01/23 03:56:20;;;;;;;10.80;4.40;;;;;;;;;;5070998;28;20458;-83
2023/01/23 03:58:46;;;;;;;10.33;5.30;;;;;;;;;;5071107;28;20467;-82
2023/01/23 04:01:13;;;;;;;8.33;4.90;;;;;;;;;;5071894;28;21026;-82
2023/01/23 04:03:39;;;;;;;6.50;4.40;;;;;;;;;;5072527;28;20471;-82
2023/01/23 04:06:07;;;;;;;8.90;5.10;;;;;;;;;;5071239;28;20450;-82
2023/01/23 04:08:33;;;;;;;10.40;3.80;;;;;;;;;;5070407;28;20473;-82
2023/01/23 04:11:03;;;;;;;6.13;4.40;;;;;;;;;;5073444;28;20472;-82
2023/01/23 04:13:30;;;;;;;7.20;4.73;;;;;;;;;;5070221;28;20463;-82
2023/01/23 04:15:56;;;;;;;10.50;4.97;;;;;;;;;;5071161;28;20467;-82
2023/01/23 04:18:23;;;;;;;8.47;6.40;;;;;;;;;;5072599;28;20472;-82
2023/01/23 04:20:49;;;;;;;9.50;6.83;;;;;;;;;;5071190;28;21026;-82
2023/01/23 04:23:17;;;;;;;11.20;5.30;;;;;;;;;;5072411;28;20459;-82
2023/01/23 04:25:43;;;;;;;6.80;5.63;;;;;;;;;;5069707;28;20459;-82
2023/01/23 04:28:10;;;;;;;9.20;4.90;;;;;;;;;;5069509;28;20470;-82
2023/01/23 04:30:36;;;;;;;5.47;3.80;;;;;;;;;;5071518;28;20456;-82
2023/01/23 04:33:02;;;;;;;10.80;6.20;;;;;;;;;;5070778;28;20455;-82
2023/01/23 04:35:29;;;;;;;8.53;4.63;;;;;;;;;;5069878;28;20481;-83
2023/01/23 04:37:55;;;;;;;6.50;5.13;;;;;;;;;;5070185;28;20463;-82
2023/01/23 04:40:23;;;;;;;6.80;4.50;;;;;;;;;;5065795;28;20480;-82
2023/01/23 04:42:49;;;;;;;9.53;4.83;;;;;;;;;;5071185;28;20480;-82
2023/01/23 04:45:15;;;;;;;6.20;4.33;;;;;;;;;;5070988;28;20478;-82
2023/01/23 04:47:42;;;;;;;10.53;5.60;;;;;;;;;;5070654;28;20478;-82
2023/01/23 04:50:08;;;;;;;11.10;4.97;;;;;;;;;;5068961;28;20472;-82
2023/01/23 04:52:35;;;;;;;5.33;4.80;;;;;;;;;;5069837;28;20479;-82
2023/01/23 04:55:01;;;;;;;9.50;4.97;;;;;;;;;;5068645;28;20483;-82
2023/01/23 04:57:29;;;;;;;7.20;5.00;;;;;;;;;;5069096;28;20543;-82
2023/01/23 04:59:55;;;;;;;4.67;4.23;;;;;;;;;;5068821;28;20483;-82
2023/01/23 05:02:22;;;;;;;13.90;5.80;;;;;;;;;;5071191;28;20491;-82
2023/01/23 05:04:48;;;;;;;13.93;5.50;;;;;;;;;;5069336;28;20470;-82
2023/01/23 05:07:15;;;;;;;14.93;5.60;;;;;;;;;;5069801;28;20467;-82
2023/01/23 05:09:41;;;;;;;7.67;5.27;;;;;;;;;;5069284;28;20468;-82
2023/01/23 05:12:08;;;;;;;6.60;5.77;;;;;;;;;;5069529;28;20472;-82
2023/01/23 05:14:36;;;;;;;6.60;5.17;;;;;;;;;;5069897;28;20478;-82
2023/01/23 05:17:02;;;;;;;6.60;5.90;;;;;;;;;;5070502;28;20467;-82
2023/01/23 05:19:28;;;;;;;12.03;5.83;;;;;;;;;;5071032;28;20475;-83
2023/01/23 05:21:54;;;;;;;10.63;6.27;;;;;;;;;;5069256;28;20486;-82
2023/01/23 05:24:21;;;;;;;11.30;6.20;;;;;;;;;;5070494;28;20475;-82
2023/01/23 05:26:47;;;;;;;7.33;6.53;;;;;;;;;;5069044;28;20466;-82
2023/01/23 05:29:14;;;;;;;6.90;5.47;;;;;;;;;;5069369;28;20482;-82
2023/01/23 05:31:41;;;;;;;7.70;5.50;;;;;;;;;;5070406;28;20477;-82
2023/01/23 05:34:08;;;;;;;8.23;6.10;;;;;;;;;;5071449;28;20475;-82
2023/01/23 05:36:34;;;;;;;9.27;6.77;;;;;;;;;;5071006;28;20873;-82
2023/01/23 05:39:00;;;;;;;9.93;6.90;;;;;;;;;;5068920;28;21034;-82
2023/01/23 05:41:27;;;;;;;8.20;6.10;;;;;;;;;;5069926;28;20490;-82
2023/01/23 05:43:53;;;;;;;13.00;7.30;;;;;;;;;;5071635;28;20479;-82
2023/01/23 05:46:19;;;;;;;6.50;5.60;;;;;;;;;;5069909;28;20467;-82
2023/01/23 05:48:49;;;;;;;8.23;6.40;;;;;;;;;;5067470;28;20944;-82
2023/01/23 05:51:16;;;;;;;8.63;6.60;;;;;;;;;;5068299;28;20550;-82
2023/01/23 05:53:42;;;;;;;9.03;6.20;;;;;;;;;;5070070;28;20474;-82
2023/01/23 05:56:09;;;;;;;13.37;6.50;;;;;;;;;;5070935;28;20482;-83
2023/01/23 05:58:35;;;;;;;11.47;6.90;;;;;;;;;;5069935;28;20463;-82
2023/01/23 06:01:02;;;;;;;12.60;6.83;;;;;;;;;;5069242;28;20498;-82
2023/01/23 06:03:28;;;;;;;10.47;6.60;;;;;;;;;;5070252;28;20955;-82
2023/01/23 06:05:56;;;;;;;9.47;7.03;;;;;;;;;;5068901;28;20466;-82
2023/01/23 06:08:22;;;;;;;12.00;8.40;;;;;;;;;;5071570;28;20467;-82
2023/01/23 06:10:49;;;;;;;10.57;7.20;;;;;;;;;;5072453;28;20545;-82
2023/01/23 06:13:15;;;;;;;10.40;7.87;;;;;;;;;;5073150;28;20455;-82
2023/01/23 06:15:42;;;;;;;12.67;8.40;;;;;;;;;;5074307;28;20459;-82
2023/01/23 06:18:08;;;;;;;12.13;8.33;;;;;;;;;;5074083;28;20470;-82
2023/01/23 06:20:34;;;;;;;17.07;10.70;;;;;;;;;;5072064;28;20499;-82
2023/01/23 06:23:02;;;;;;;11.27;7.97;;;;;;;;;;5070639;28;20468;-82
2023/01/23 06:25:28;;;;;;;15.50;8.17;;;;;;;;;;5075377;28;20458;-82
2023/01/23 06:27:55;;;;;;;14.07;9.47;;;;;;;;;;5074598;28;20443;-82
2023/01/23 06:30:21;;;;;;;12.80;8.50;;;;;;;;;;5074288;28;20470;-82
2023/01/23 06:32:47;;;;;;;14.70;8.30;;;;;;;;;;5074684;28;20475;-82
2023/01/23 06:35:14;;;;;;;12.90;8.60;;;;;;;;;;5076185;28;20474;-82
2023/01/23 06:37:40;;;;;;;13.20;8.37;;;;;;;;;;5074959;28;20440;-82
2023/01/23 06:40:12;;;;;;;15.63;9.53;;;;;;;;;;5074338;28;20571;-82
2023/01/23 06:42:38;;;;;;;16.50;7.90;;;;;;;;;;5072848;28;20487;-83
2023/01/23 06:45:05;;;;;;;18.03;8.60;;;;;;;;;;5072434;28;20521;-82
2023/01/23 06:47:32;;;;;;;13.57;9.53;;;;;;;;;;5073938;28;21008;-82
2023/01/23 06:49:58;;;;;;;13.57;9.53;;;;;;;;;;5073121;28;20475;-83
2023/01/23 06:52:25;;;;;;;14.47;10.40;;;;;;;;;;5074184;28;20470;-82
2023/01/23 06:54:51;;;;;;;13.03;9.90;;;;;;;;;;5071374;28;20466;-83
2023/01/23 06:57:19;;;;;;;15.10;10.37;;;;;;;;;;5073757;28;20811;-82
2023/01/23 06:59:45;;;;;;;18.57;10.17;;;;;;;;;;5071717;28;21014;-83
2023/01/23 07:02:12;;;;;;;15.40;10.07;;;;;;;;;;5074388;28;20728;-82
2023/01/23 07:04:38;;;;;;;17.83;10.07;;;;;;;;;;5073475;28;20460;-82
2023/01/23 07:07:04;;;;;;;19.40;10.73;;;;;;;;;;5071736;28;20467;-82
2023/01/23 07:09:31;;;;;;;15.70;10.77;;;;;;;;;;5071384;28;20477;-82
2023/01/23 07:11:57;;;;;;;23.87;14.23;;;;;;;;;;5073761;28;20459;-82
2023/01/23 07:14:27;;;;;;;18.20;11.47;;;;;;;;;;5072519;28;20466;-82
2023/01/23 07:16:53;;;;;;;17.30;11.87;;;;;;;;;;5073047;28;20462;-82
2023/01/23 07:19:20;;;;;;;17.00;9.77;;;;;;;;;;5073735;28;20479;-82
2023/01/23 07:21:48;;;;;;;18.27;11.03;;;;;;;;;;5072347;28;20495;-82
2023/01/23 07:24:14;;;;;;;13.07;9.57;;;;;;;;;;5071015;28;20468;-82
2023/01/23 07:26:40;;;;;;;23.00;11.60;;;;;;;;;;5071650;28;20447;-82
2023/01/23 07:29:07;;;;;;;16.57;10.70;;;;;;;;;;5074265;28;20466;-82
2023/01/23 07:31:35;;;;;;;16.50;10.17;;;;;;;;;;5073370;28;20475;-82
2023/01/23 07:34:01;;;;;;;16.83;11.10;;;;;;;;;;5073131;28;20475;-82
2023/01/23 07:36:28;;;;;;;18.13;12.30;;;;;;;;;;5073342;28;20440;-82
2023/01/23 07:38:55;;;;;;;21.73;10.67;;;;;;;;;;5073641;28;20477;-82
2023/01/23 07:41:21;;;;;;;18.83;10.87;;;;;;;;;;5070780;28;20499;-82
2023/01/23 07:43:47;;;;;;;18.17;11.90;;;;;;;;;;5072261;28;20468;-82
2023/01/23 07:46:14;;;;;;;22.60;12.73;;;;;;;;;;5072247;28;20475;-82
2023/01/23 07:48:42;;;;;;;20.93;13.93;;;;;;;;;;5072904;28;20471;-82
2023/01/23 07:51:08;;;;;;;20.70;11.23;;;;;;;;;;5074550;28;20463;-82
2023/01/23 07:53:34;;;;;;;20.20;12.07;;;;;;;;;;5072592;28;21188;-82
2023/01/23 07:56:03;;;;;;;18.50;12.30;;;;;;;;;;5071233;28;20466;-83
2023/01/23 07:58:31;;;;;;;24.70;13.97;;;;;;;;;;5072424;28;25675;-82
2023/01/23 08:00:57;;;;;;;17.57;12.03;;;;;;;;;;5072053;28;20507;-82
2023/01/23 08:03:27;;;;;;;21.53;12.90;;;;;;;;;;5071640;28;20491;-82
2023/01/23 08:05:55;;;;;;;17.90;12.63;;;;;;;;;;5072884;28;20443;-82
2023/01/23 08:08:21;;;;;;;26.10;12.73;;;;;;;;;;5070857;28;20459;-82
2023/01/23 08:10:47;;;;;;;22.00;13.10;;;;;;;;;;5073271;28;20836;-82
2023/01/23 08:13:14;;;;;;;20.43;11.73;;;;;;;;;;5073397;28;20455;-82
2023/01/23 08:15:40;;;;;;;23.37;13.17;;;;;;;;;;5075378;28;20470;-82
2023/01/23 08:18:07;;;;;;;18.50;13.17;;;;;;;;;;5073597;28;20459;-82
2023/01/23 08:20:33;;;;;;;19.17;11.40;;;;;;;;;;5074774;28;20460;-82
2023/01/23 08:23:01;;;;;;;20.37;12.70;;;;;;;;;;5073425;28;20483;-82
2023/01/23 08:25:27;;;;;;;21.10;13.80;;;;;;;;;;5073081;28;21044;-82
2023/01/23 08:27:53;;;;;;;21.60;12.10;;;;;;;;;;5073882;28;20841;-82
2023/01/23 08:30:20;;;;;;;24.40;12.30;;;;;;;;;;5072851;28;20546;-82
2023/01/23 08:32:46;;;;;;;19.67;12.57;;;;;;;;;;5071285;28;20483;-84
2023/01/23 08:35:13;;;;;;;21.03;12.60;;;;;;;;;;5071357;28;20471;-82
2023/01/23 08:37:40;;;;;;;20.50;11.60;;;;;;;;;;5073378;28;20442;-82
2023/01/23 08:40:09;;;;;;;18.50;12.00;;;;;;;;;;5073243;28;20557;-82
2023/01/23 08:42:36;;;;;;;17.30;11.60;;;;;;;;;;5072423;28;20984;-82
2023/01/23 08:45:03;;;;;;;22.00;12.90;;;;;;;;;;5072601;28;21003;-82
2023/01/23 08:47:35;;;;;;;19.33;11.43;;;;;;;;;;5072090;28;20964;-82
2023/01/23 08:50:01;;;;;;;20.37;12.37;;;;;;;;;;5074398;28;20489;-82
2023/01/23 08:52:28;;;;;;;20.33;12.47;;;;;;;;;;5070590;28;20482;-81
2023/01/23 08:54:54;;;;;;;22.60;13.53;;;;;;;;;;5072612;28;20482;-82
2023/01/23 08:57:22;;;;;;;21.80;12.37;;;;;;;;;;5074580;28;20447;-82
2023/01/23 08:59:48;;;;;;;19.40;12.20;;;;;;;;;;5071561;28;20515;-82
2023/01/23 09:02:14;;;;;;;23.03;12.40;;;;;;;;;;5072211;28;20837;-82
2023/01/23 09:04:41;;;;;;;24.00;13.60;;;;;;;;;;5073327;28;20467;-82
2023/01/23 09:07:07;;;;;;;18.57;11.67;;;;;;;;;;5072068;28;20440;-82
2023/01/23 09:09:34;;;;;;;19.87;12.80;;;;;;;;;;5072480;28;20497;-82
2023/01/23 09:12:00;;;;;;;20.60;12.53;;;;;;;;;;5073741;28;20887;-82
2023/01/23 09:14:28;;;;;;;20.00;12.63;;;;;;;;;;5070657;28;20467;-82
2023/01/23 09:16:54;;;;;;;19.63;12.90;;;;;;;;;;5071349;28;20821;-82
2023/01/23 09:19:21;;;;;;;27.40;15.10;;;;;;;;;;5073270;28;20991;-82
2023/01/23 09:21:47;;;;;;;19.27;12.60;;;;;;;;;;5071894;28;20455;-82
2023/01/23 09:24:13;;;;;;;21.77;12.60;;;;;;;;;;5072677;28;21035;-82
2023/01/23 09:26:40;;;;;;;18.50;11.43;;;;;;;;;;5071093;28;20462;-82
2023/01/23 09:29:06;;;;;;;24.13;13.33;;;;;;;;;;5069233;28;20476;-82
2023/01/23 09:31:35;;;;;;;22.93;13.10;;;;;;;;;;5073239;28;20476;-82
2023/01/23 09:34:02;;;;;;;19.40;12.90;;;;;;;;;;5070174;28;20470;-82
2023/01/23 09:36:29;;;;;;;25.80;13.87;;;;;;;;;;5067150;28;21200;-82
2023/01/23 09:38:55;;;;;;;19.67;12.20;;;;;;;;;;5070704;28;20471;-82
2023/01/23 09:41:24;;;;;;;24.00;13.17;;;;;;;;;;5072372;28;20475;-82
2023/01/23 09:43:53;;;;;;;22.80;14.10;;;;;;;;;;5074764;28;20478;-82
2023/01/23 09:46:21;;;;;;;21.40;13.67;;;;;;;;;;5076296;28;20947;-82
2023/01/23 09:48:52;;;;;;;25.30;15.20;;;;;;;;;;5074294;28;20466;-82
2023/01/23 09:51:22;;;;;;;21.10;12.83;;;;;;;;;;5075496;28;20490;-82
2023/01/23 09:53:49;;;;;;;25.57;14.23;;;;;;;;;;5075657;28;20479;-82
2023/01/23 09:56:21;;;;;;;25.40;15.10;;;;;;;;;;5076580;28;20483;-82
2023/01/23 09:58:53;;;;;;;23.23;13.90;;;;;;;;;;5073604;28;20486;-82
2023/01/23 10:01:20;;;;;;;20.80;14.67;;;;;;;;;;5074358;28;20475;-82
2023/01/23 10:03:46;;;;;;;24.53;13.13;;;;;;;;;;5074461;28;20471;-82
2023/01/23 10:06:19;;;;;;;26.10;14.90;;;;;;;;;;5076441;28;20445;-82
2023/01/23 10:08:53;;;;;;;23.87;13.77;;;;;;;;;;5075606;28;20467;-82
2023/01/23 10:11:22;;;;;;;20.23;13.43;;;;;;;;;;5074907;28;21002;-82
2023/01/23 10:13:54;;;;;;;17.40;11.93;;;;;;;;;;5075214;28;20995;-82
2023/01/23 10:16:37;;;;;;;18.13;12.33;;;;;;;;;;5075179;28;20804;-82
2023/01/23 10:19:09;;;;;;;21.83;12.97;;;;;;;;;;5076273;28;20470;-82
2023/01/23 10:21:40;;;;;;;18.43;12.53;;;;;;;;;;5074654;28;20459;-82
2023/01/23 10:24:25;;;;;;;20.90;12.40;;;;;;;;;;5073289;28;20482;-82
2023/01/23 10:26:54;;;;;;;20.07;14.00;;;;;;;;;;5073487;28;20458;-82
2023/01/23 10:29:27;;;;;;;20.00;12.60;;;;;;;;;;5074470;28;20463;-82
2023/01/23 10:31:55;;;;;;;26.83;14.27;;;;;;;;;;5073236;28;20469;-82
2023/01/23 10:34:25;;;;;;;17.27;12.43;;;;;;;;;;5073079;28;20475;-82
2023/01/23 10:37:01;;;;;;;20.57;14.40;;;;;;;;;;5072394;28;21094;-82
2023/01/23 10:39:31;;;;;;;21.43;14.00;;;;;;;;;;5073807;28;20467;-82
2023/01/23 10:41:57;;;;;;;19.83;12.87;;;;;;;;;;5075670;28;20972;-82
2023/01/23 10:44:23;;;;;;;20.53;13.30;;;;;;;;;;5074229;28;20463;-82
2023/01/23 10:46:50;;;;;;;17.43;12.17;;;;;;;;;;5074314;28;20831;-82
2023/01/23 10:49:30;;;;;;;20.50;13.10;;;;;;;;;;5074315;28;20470;-82
2023/01/23 10:51:58;;;;;;;21.30;13.00;;;;;;;;;;5074881;28;20464;-82
2023/01/23 10:54:25;;;;;;;16.83;11.27;;;;;;;;;;5070839;28;20471;-83
2023/01/23 10:56:54;;;;;;;20.53;11.60;;;;;;;;;;5074705;28;20442;-82
2023/01/23 10:59:23;;;;;;;21.43;13.00;;;;;;;;;;5073861;28;20472;-82
2023/01/23 11:02:00;;;;;;;20.13;13.13;;;;;;;;;;5073724;28;20844;-82
2023/01/23 11:04:28;;;;;;;22.60;12.30;;;;;;;;;;5073459;28;21055;-82
2023/01/23 11:07:03;;;;;;;23.43;13.00;;;;;;;;;;5072962;28;20458;-82
2023/01/23 11:09:30;;;;;;;18.80;12.00;;;;;;;;;;5068554;28;20464;-83
2023/01/23 11:12:00;;;;;;;18.70;12.30;;;;;;;;;;5072073;28;20985;-82
2023/01/23 11:14:27;;;;;;;16.33;11.73;;;;;;;;;;5071388;28;20471;-82
2023/01/23 11:17:00;;;;;;;21.23;11.97;;;;;;;;;;5074420;28;20466;-82
2023/01/23 11:19:26;;;;;;;16.47;11.20;;;;;;;;;;5070773;28;20463;-82
2023/01/23 11:21:54;;;;;;;18.00;12.23;;;;;;;;;;5072962;28;20463;-82
2023/01/23 11:24:30;;;;;;;15.57;10.67;;;;;;;;;;5070412;28;20471;-82
2023/01/23 11:26:58;;;;;;;17.37;11.33;;;;;;;;;;5072548;28;20470;-82
2023/01/23 11:29:25;;;;;;;16.97;11.30;;;;;;;;;;5072444;28;20463;-82
2023/01/23 11:31:55;;;;;;;15.63;10.60;;;;;;;;;;5072040;28;20480;-82
2023/01/23 11:34:23;;;;;;;18.77;12.00;;;;;;;;;;5070809;28;20460;-82
2023/01/23 11:36:53;;;;;;;16.83;11.30;;;;;;;;;;5072199;28;20444;-82
2023/01/23 11:39:26;;;;;;;17.63;11.40;;;;;;;;;;5072020;28;20470;-82
2023/01/23 11:41:53;;;;;;;18.90;12.33;;;;;;;;;;5070293;28;20483;-82
2023/01/23 11:44:20;;;;;;;18.00;11.30;;;;;;;;;;5070975;28;20476;-83
2023/01/23 11:46:56;;;;;;;17.93;12.30;;;;;;;;;;5073338;28;20479;-82
2023/01/23 11:49:32;;;;;;;19.93;12.20;;;;;;;;;;5072042;28;20470;-83
2023/01/23 11:52:07;;;;;;;15.77;11.20;;;;;;;;;;5073403;28;20513;-83
2023/01/23 11:54:49;;;;;;;17.60;12.03;;;;;;;;;;5074107;28;20467;-83
2023/01/23 11:57:19;;;;;;;21.43;12.83;;;;;;;;;;5071916;28;20458;-83
2023/01/23 11:59:51;;;;;;;17.60;12.50;;;;;;;;;;5071899;28;20486;-82
2023/01/23 12:02:34;;;;;;;17.97;11.17;;;;;;;;;;5072873;28;20561;-82
2023/01/23 12:05:08;;;;;;;20.43;12.27;;;;;;;;;;5069455;28;20473;-82
2023/01/23 12:07:35;;;;;;;24.57;13.80;;;;;;;;;;5072902;28;20995;-82
2023/01/23 12:10:11;;;;;;;22.17;12.10;;;;;;;;;;5057789;28;20474;-82
2023/01/23 12:12:50;;;;;;;18.83;12.10;;;;;;;;;;5069756;28;20473;-83
2023/01/23 12:15:21;;;;;;;19.07;12.27;;;;;;;;;;5072415;28;20451;-82
2023/01/23 12:17:52;;;;;;;21.27;12.77;;;;;;;;;;5074781;28;20455;-83
2023/01/23 12:20:26;;;;;;;17.90;11.90;;;;;;;;;;5073306;28;20447;-82
2023/01/23 12:23:11;;;;;;;25.70;12.77;;;;;;;;;;5073348;28;20480;-84
2023/01/23 12:25:39;;;;;;;18.63;11.40;;;;;;;;;;5071891;28;21019;-82
2023/01/23 12:28:16;;;;;;;19.40;12.20;;;;;;;;;;5072933;28;20451;-82
2023/01/23 12:30:55;;;;;;;17.70;11.60;;;;;;;;;;5072824;28;20475;-82
2023/01/23 12:33:29;;;;;;;21.20;14.10;;;;;;;;;;5071327;28;20435;-82
2023/01/23 12:36:01;;;;;;;22.23;12.37;;;;;;;;;;5072149;28;20477;-82
2023/01/23 12:38:30;;;;;;;20.50;13.17;;;;;;;;;;5073188;28;20448;-82
2023/01/23 12:41:04;;;;;;;22.00;12.37;;;;;;;;;;5071238;28;20481;-82
2023/01/23 12:43:36;;;;;;;19.67;11.63;;;;;;;;;;5072234;28;20482;-84
2023/01/23 12:46:05;;;;;;;20.00;11.87;;;;;;;;;;5070287;28;21001;-81
2023/01/23 12:48:35;;;;;;;20.30;13.57;;;;;;;;;;5069406;28;20516;-81
2023/01/23 12:51:04;;;;;;;22.00;12.37;;;;;;;;;;5070031;28;20484;-81
2023/01/23 12:53:36;;;;;;;19.43;12.67;;;;;;;;;;5071789;28;20459;-81
2023/01/23 12:56:09;;;;;;;22.53;12.80;;;;;;;;;;5070179;28;20471;-81
2023/01/23 12:58:39;;;;;;;17.73;12.30;;;;;;;;;;5071138;28;20471;-82
2023/01/23 13:01:13;;;;;;;18.50;12.80;;;;;;;;;;5072609;28;20497;-81
2023/01/23 13:03:57;;;;;;;19.00;13.00;;;;;;;;;;5051258;28;20941;-82
2023/01/23 13:06:28;;;;;;;19.07;12.13;;;;;;;;;;5070709;28;20481;-82
2023/01/23 13:08:56;;;;;;;18.27;12.27;;;;;;;;;;5072064;28;20439;-82
2023/01/23 13:11:40;;;;;;;24.33;12.20;;;;;;;;;;5069556;28;20478;-81
2023/01/23 13:14:15;;;;;;;17.47;11.77;;;;;;;;;;5071043;28;20436;-81
2023/01/23 13:16:45;;;;;;;24.23;12.63;;;;;;;;;;5071322;28;20473;-81
2023/01/23 13:22:05;;;;;;;17.87;11.70;;;;;;;;;;5071523;28;20520;-81
2023/01/23 13:27:45;;;;;;;20.70;14.00;;;;;;;;;;5070186;28;20467;-81
2023/01/23 13:30:31;;;;;;;21.17;11.83;;;;;;;;;;5067546;28;20462;-81
2023/01/23 13:33:02;;;;;;;19.83;12.07;;;;;;;;;;5071237;28;20537;-81
2023/01/23 13:35:48;;;;;;;17.63;12.20;;;;;;;;;;5070488;28;20508;-81
2023/01/23 13:38:30;;;;;;;18.93;11.60;;;;;;;;;;5069088;28;21066;-81
2023/01/23 13:41:18;;;;;;;19.23;11.33;;;;;;;;;;5068711;28;20470;-81
2023/01/23 13:43:53;;;;;;;17.80;12.10;;;;;;;;;;5068241;28;20569;-82
2023/01/23 13:46:26;;;;;;;19.10;10.90;;;;;;;;;;5069561;28;21003;-81
2023/01/23 13:51:43;;;;;;;19.13;11.93;;;;;;;;;;5068850;28;20494;-81
2023/01/23 13:56:58;;;;;;;18.07;11.60;;;;;;;;;;5069396;28;20544;-81
2023/01/23 13:59:27;;;;;;;25.50;13.63;;;;;;;;;;5069244;28;20451;-81
2023/01/23 14:07:58;;;;;;;22.87;13.33;;;;;;;;;;5068408;28;20524;-81
2023/01/23 14:10:25;;;;;;;17.77;11.43;;;;;;;;;;5069296;28;20446;-81
2023/01/23 14:13:01;;;;;;;17.70;11.10;;;;;;;;;;5067939;28;20479;-81
2023/01/23 14:18:17;;;;;;;21.27;13.03;;;;;;;;;;5070439;28;20429;-82
2023/01/23 14:20:45;;;;;;;18.63;12.67;;;;;;;;;;5070152;28;20462;-81
2023/01/23 14:23:20;;;;;;;20.20;12.80;;;;;;;;;;5069214;28;20459;-81
2023/01/23 14:25:47;;;;;;;17.73;11.93;;;;;;;;;;5068656;28;20470;-82
2023/01/23 14:28:15;;;;;;;20.27;11.90;;;;;;;;;;5072452;28;20458;-82
2023/01/23 14:30:53;;;;;;;19.03;12.97;;;;;;;;;;5073686;28;20476;-82
2023/01/23 14:33:19;;;;;;;19.70;13.40;;;;;;;;;;5073037;28;20444;-82
2023/01/23 14:35:46;;;;;;;21.27;11.93;;;;;;;;;;5074255;28;20474;-81
2023/01/23 14:38:16;;;;;;;19.60;11.97;;;;;;;;;;5074162;28;20897;-82
2023/01/23 14:40:45;;;;;;;16.63;11.60;;;;;;;;;;5072673;28;21335;-81
2023/01/23 14:43:17;;;;;;;23.17;13.00;;;;;;;;;;5072778;28;20515;-81
2023/01/23 14:45:46;;;;;;;16.87;12.10;;;;;;;;;;5073458;28;20474;-81
2023/01/23 14:48:15;;;;;;;19.80;12.60;;;;;;;;;;5073114;28;20487;-81
2023/01/23 14:50:42;;;;;;;18.50;12.47;;;;;;;;;;5071469;28;20463;-81
2023/01/23 14:53:12;;;;;;;19.80;12.40;;;;;;;;;;5073365;28;20440;-81
2023/01/23 14:55:40;;;;;;;17.67;12.07;;;;;;;;;;5073850;28;21022;-81
2023/01/23 14:58:07;;;;;;;19.27;11.50;;;;;;;;;;5073047;28;20478;-81
2023/01/23 15:00:35;;;;;;;20.47;13.30;;;;;;;;;;5072763;28;20833;-81
2023/01/23 15:03:03;;;;;;;15.47;11.27;;;;;;;;;;5074858;28;20454;-81